St. George, Utah Weather observations

Data are for observation ending at time listed.
 Day   Time    Ave.   Ave.  Ave.  Vector   Max.   Stn.    Total    Solar   Ave.  
  of    of     Air    Rel.  Wind   Wind    Wind   Baro.  Precip.   Rad.    Soil  
Year   Day     Temp.  Hum.  Speed  Dir.    Gust   Pres.                    Temp. 
2014   (MST)    F      %     mph   deg.    mph     mb.     in.     W/m2     F   
------------------------------------------------------------------------------
 297   22:20   63.3    42    0.2   352      1.4   923.9    0.00       0    71.4
 297   22:30   62.7    43    0.3   354      1.1   924.0    0.00       0    71.3
 297   22:40   62.7    43    1.1   357      2.6   924.0    0.00       0    71.3
 297   22:50   63.1    43    2.3   350      3.0   923.9    0.00       0    71.2
 297   23:00   63.1    43    0.5   341      2.0   923.9    0.00       0    71.1
 297   23:10   62.1    47    0.4   229      1.7   924.0    0.00       0    71.0
 297   23:20   61.2    49    0.9   210      2.3   924.2    0.00       0    71.0
 297   23:30   60.6    51    0.3   351      0.8   924.1    0.00       0    70.9
 297   23:40   59.9    53    1.0   339      2.3   924.2    0.00       0    70.8
 297   23:50   59.9    52    1.2   350      2.3   924.3    0.00       0    70.7
 298    0:00   60.7    48    2.3   339      3.2   924.4    0.00       0    70.6
 298    0:10   61.6    45    1.6     1      3.7   924.4    0.00       0    70.5
 298    0:20   62.0    44    1.3     1      2.5   924.3    0.00       0    70.5
 298    0:30   61.8    44    0.8   352      1.8   924.3    0.00       0    70.4
 298    0:40   61.4    44    0.4   350      1.5   924.4    0.00       0    70.3
 298    0:50   60.6    46    0.1    60      1.2   924.4    0.00       0    70.2
 298    1:00   59.6    50    0.8   221      2.0   924.4    0.00       0    70.2
 298    1:10   58.7    53    0.5   224      1.5   924.5    0.00       0    70.1
 298    1:20   57.7    57    0.5    44      1.5   924.5    0.00       0    70.0
 298    1:30   57.4    57    0.3   341      0.9   924.5    0.00       0    70.0
 298    1:40   57.4    58    0.8   353      1.8   924.5    0.00       0    69.9
 298    1:50   57.2    56    0.5   264      1.5   924.5    0.00       0    69.8
 298    2:00   56.9    57    0.7   314      1.8   924.6    0.00       0    69.7
 298    2:10   56.6    58    0.4   200      1.2   924.7    0.00       0    69.6
 298    2:20   56.4    58    0.8    53      1.6   924.7    0.00       0    69.6
 298    2:30   56.4    58    0.7    16      1.5   924.6    0.00       0    69.5
 298    2:40   56.5    57    0.9   267      2.6   924.6    0.00       0    69.4
 298    2:50   55.9    59    0.1   218      0.9   924.6    0.00       0    69.3
 298    3:00   55.5    62    0.4    45      1.5   924.4    0.00       0    69.2
 298    3:10   55.4    61    0.3   240      1.3   924.4    0.00       0    69.2
 298    3:20   55.2    61    0.2   222      1.2   924.4    0.00       0    69.1
 298    3:30   54.6    62    0.0   228      0.5   924.4    0.00       0    69.0
 298    3:40   54.3    63    0.7     9      2.5   924.3    0.00       0    68.9
 298    3:50   54.4    64    0.3   105      1.4   924.3    0.00       0    68.9
 298    4:00   54.2    63    0.5   341      1.4   924.4    0.00       0    68.8
 298    4:10   54.2    62    0.5     7      1.7   924.3    0.00       0    68.7
 298    4:20   53.9    63    0.0   229      0.4   924.4    0.00       0    68.6
 298    4:30   53.5    64    0.5   346      1.8   924.4    0.00       0    68.6
 298    4:40   53.4    65    0.2   108      1.4   924.4    0.00       0    68.5
 298    4:50   53.4    68    0.0   313      0.6   924.4    0.00       0    68.4
 298    5:00   53.1    68    0.6   311      1.8   924.4    0.00       0    68.3
 298    5:10   52.8    66    0.6    26      1.8   924.6    0.00       0    68.3
 298    5:20   53.1    67    0.4    91      1.6   924.5    0.00       0    68.2
 298    5:30   53.0    67    0.1   159      1.2   924.5    0.00       0    68.1
 298    5:40   53.0    67    1.0   230      2.6   924.7    0.00       0    68.0
 298    5:50   52.5    69    0.8   340      2.6   924.7    0.00       0    68.0
 298    6:00   52.2    70    0.6   192      2.0   924.8    0.00       0    67.9
 298    6:10   52.0    72    0.4    54      1.5   924.9    0.00       0    67.8
 298    6:20   51.6    72    0.7    54      2.4   924.9    0.00       0    67.7
 298    6:30   52.1    68    1.3    40      2.9   924.8    0.00       0    67.7
 298    6:40   54.2    59    2.7   342      6.4   924.8    0.00       0    67.6
 298    6:50   52.3    66    2.2   189      5.2   924.9    0.00       0    67.5
 298    7:00   51.4    67    1.0   123      2.7   924.9    0.00       6    67.4
 298    7:10   51.1    67    0.6   211      2.0   925.0    0.00       9    67.4
 298    7:20   51.0    68    1.3   308      2.6   925.1    0.00      13    67.3
 298    7:30   51.3    68    0.4   303      2.1   925.2    0.00      19    67.2
 298    7:40   52.1    67    0.5   352      1.5   925.3    0.00      24    67.2
 298    7:50   53.0    66    0.5    54      1.6   925.2    0.00      39    67.1
 298    8:00   54.1    60    1.0   140      2.2   925.2    0.00      86    67.0
 298    8:10   55.5    56    1.1   183      1.8   925.4    0.00     187    66.9
 298    8:20   56.9    54    0.9   259      2.4   925.5    0.00     239    66.9
 298    8:30   58.9    52    0.7   244      2.3   925.7    0.00     293    66.8
 298    8:40   60.3    49    0.6   192      1.7   925.7    0.00     315    66.8
 298    8:50   61.5    48    1.6   148      3.9   925.6    0.00     375    66.8
 298    9:00   61.1    49    2.1   181      3.6   925.7    0.00     248    66.7
 298    9:10   60.7    50    2.9   190      4.3   925.6    0.00     201    66.7
 298    9:20   60.4    51    1.7   196      3.3   925.6    0.00     339    66.6
 298    9:30   61.5    50    0.7   174      2.3   925.5    0.00     442    66.6
 298    9:40   62.4    48    1.6   182      3.5   925.4    0.00     465    66.6
 298    9:50   62.8    46    1.8   179      3.4   925.3    0.00     497    66.5
 298   10:00   63.6    44    1.8   179      3.5   925.3    0.00     518    66.5
 298   10:10   65.2    38    1.6   194      3.6   925.3    0.00     472    66.5
 298   10:20   66.0    36    1.7   235      3.8   925.3    0.00     570    66.5
 298   10:30   66.9    34    2.1   206      4.6   925.2    0.00     578    66.5
 298   10:40   68.3    32    1.5   232      3.6   925.2    0.00     591    66.5
 298   10:50   69.3    30    1.7   183      4.8   925.0    0.00     605    66.5
 298   11:00   71.1    30    1.2   211      4.2   924.8    0.00     615    66.5
 298   11:10   72.1    28    2.3   199      6.4   924.7    0.00     628    66.5
 298   11:20   73.1    29    1.7   168      4.1   924.5    0.00     642    66.5
 298   11:30   74.7    28    1.9   152      4.2   924.3    0.00     649    66.5
 298   11:40   74.5    27    2.3   190      4.6   924.1    0.00     656    66.5
 298   11:50   74.2    28    3.1   200      5.7   924.0    0.00     661    66.6
 298   12:00   75.0    27    2.6   199      5.8   923.8    0.00     663    66.6
 298   12:10   76.5    26    1.4   163      4.2   923.6    0.00     625    66.7
 298   12:20   77.2    25    1.7   301      3.9   923.4    0.00     686    66.8
 298   12:30   77.7    25    0.7    52      2.6   923.1    0.00     417    66.8
 298   12:40   78.8    24    1.7   183      3.2   922.9    0.00     696    66.9
 298   12:50   80.0    23    1.3   202      3.4   922.7    0.00     717    67.1
 298   13:00   80.9    24    1.8   182      5.8   922.5    0.00     690    67.2
 298   13:10   81.3    23    2.2   165      4.8   922.3    0.00     682    67.4
 298   13:20   81.9    24    2.0   155      4.2   922.1    0.00     664    67.6
 298   13:30   81.8    23    2.4   180      7.2   922.0    0.00     661    67.8
 298   13:40   81.4    23    1.7    44      4.5   921.8    0.00     664    68.0
 298   13:50   82.2    23    1.5   184      5.0   921.7    0.00     639    68.3
 298   14:00   83.5    23    1.0    62      2.6   921.7    0.00     617    68.5
 298   14:10   83.2    23    1.9   177      6.9   921.6    0.00     453    68.7
 298   14:20   82.3    23    3.5   213      6.0   921.5    0.00     583    69.0
 298   14:30   83.0    23    0.6   259      2.6   921.3    0.00     395    69.2
 298   14:40   84.1    23    0.8   246      3.4   921.2    0.00     554    69.5
 298   14:50   84.7    22    1.8   219      8.2   921.1    0.00     510    69.7
 298   15:00   83.1    23    3.1   204      8.1   921.0    0.00     471    70.0
 298   15:10   83.5    23    3.4   245      8.0   920.9    0.00     524    70.2
 298   15:20   84.0    22    3.4   230      7.2   920.8    0.00     465    70.4
 298   15:30   84.3    22    2.4   215      9.9   920.6    0.00     435    70.6
 298   15:40   83.8    22    4.7   221      9.3   920.5    0.00     352    70.9
 298   15:50   83.8    22    5.3   209     10.5   920.4    0.00     421    71.1
 298   16:00   84.2    22    4.7   231     10.5   920.2    0.00     349    71.3
 298   16:10   84.3    22    3.3   228      9.0   920.1    0.00     284    71.5
 298   16:20   84.2    22    3.8   217     12.3   920.0    0.00     210    71.8
 298   16:30   82.6    24    2.2   210     10.2   920.0    0.00      94    71.9
 298   16:40   82.5    23    6.8   197     14.5   919.8    0.00     163    72.0
 298   16:50   83.0    23    7.9   196     15.5   919.7    0.00     181    72.2
 298   17:00   83.0    23    6.7   200     16.6   919.5    0.00     156    72.4
 298   17:10   82.5    24    7.1   216     17.2   919.5    0.00     100    72.5
 298   17:20   81.7    24    8.6   203     20.6   919.4    0.00      29    72.6
 298   17:30   81.4    24    7.4   195     16.8   919.3    0.00      32    72.7
 298   17:40   80.9    25    6.0   195     15.0   919.3    0.00      14    72.7
 298   17:50   80.4    25    5.6   204     14.2   919.3    0.00       4    72.8
 298   18:00   80.3    25    7.1   194     13.1   919.3    0.00       3    72.8
 298   18:10   80.0    25    5.6   195     11.0   919.3    0.00       1    72.9
 298   18:20   79.8    25    6.1   193     13.0   919.3    0.00       0    72.9
 298   18:30   79.3    26    4.2   185      9.1   919.3    0.00       0    72.9
 298   18:40   78.5    26    3.3   187      9.4   919.3    0.00       0    72.9
 298   18:50   78.5    26    2.9   190      5.8   919.4    0.00       0    73.0
 298   19:00   77.6    28    1.5   162      5.0   919.4    0.00       0    72.9
 298   19:10   76.7    29    1.6   166      4.2   919.5    0.00       0    72.9
 298   19:20   76.4    29    1.6   145      5.0   919.6    0.00       0    72.9
 298   19:30   76.0    29    1.9   133      5.4   919.6    0.00       0    72.9
 298   19:40   75.8    29    1.8   165      4.7   919.7    0.00       0    72.9
 298   19:50   75.3    30    0.8   185      3.5   919.7    0.00       0    72.8
 298   20:00   74.7    30    0.9   162      3.3   919.8    0.00       0    72.8
 298   20:10   74.4    31    1.0   113      3.1   919.8    0.00       0    72.8
 298   20:20   74.5    31    1.7   155      4.8   919.9    0.00       0    72.8
 298   20:30   75.6    29    2.9   145      8.7   919.9    0.00       0    72.7
 298   20:40   75.7    29    2.3   143      7.6   919.9    0.00       0    72.7
 298   20:50   75.4    30    1.8   169      4.7   919.9    0.00       0    72.6
 298   21:00   75.3    30    1.6   157      6.5   919.8    0.00       0    72.6
 298   21:10   74.1    32    0.8   125      5.6   919.8    0.00       0    72.5
 298   21:20   73.1    33    1.4   127      4.2   919.8    0.00       0    72.5
 298   21:30   73.3    32    1.2   176      3.6   919.9    0.00       0    72.4
 298   21:40   72.9    34    0.9   118      4.0   919.8    0.00       0    72.4
 298   21:50   72.6    34    1.7    93      4.6   919.9    0.00       0    72.4
 298   22:00   72.6    34    1.5   336      3.4   919.9    0.00       0    72.3
 298   22:10   72.2    35    2.2    12      3.9   919.9    0.00       0    72.2

Return to St. George, Utah graphs page.


Western Regional Climate Center,wrcc@dri.edu